sensor_id;sensor_type;location;lat;lon;timestamp;P1;durP1;ratioP1;P2;durP2;ratioP2
35897;SDS011;21997;47.118;15.346;2023-09-19T00:00:21;8.53;;;4.03;;
35897;SDS011;21997;47.118;15.346;2023-09-19T00:02:54;8.97;;;4.03;;
35897;SDS011;21997;47.118;15.346;2023-09-19T00:05:20;7.47;;;4.50;;
35897;SDS011;21997;47.118;15.346;2023-09-19T00:07:49;5.70;;;4.10;;
35897;SDS011;21997;47.118;15.346;2023-09-19T00:10:16;8.60;;;4.27;;
35897;SDS011;21997;47.118;15.346;2023-09-19T00:12:45;6.53;;;4.33;;
35897;SDS011;21997;47.118;15.346;2023-09-19T00:15:10;8.57;;;4.30;;
35897;SDS011;21997;47.118;15.346;2023-09-19T00:17:36;5.90;;;4.07;;
35897;SDS011;21997;47.118;15.346;2023-09-19T00:20:02;7.90;;;5.30;;
35897;SDS011;21997;47.118;15.346;2023-09-19T00:22:32;7.23;;;4.37;;
35897;SDS011;21997;47.118;15.346;2023-09-19T00:24:57;8.60;;;4.13;;
35897;SDS011;21997;47.118;15.346;2023-09-19T00:27:22;6.40;;;3.43;;
35897;SDS011;21997;47.118;15.346;2023-09-19T00:29:48;6.30;;;3.00;;
35897;SDS011;21997;47.118;15.346;2023-09-19T00:32:13;5.57;;;3.37;;
35897;SDS011;21997;47.118;15.346;2023-09-19T00:34:38;5.80;;;3.30;;
35897;SDS011;21997;47.118;15.346;2023-09-19T00:37:05;8.80;;;3.80;;
35897;SDS011;21997;47.118;15.346;2023-09-19T00:39:30;5.70;;;2.73;;
35897;SDS011;21997;47.118;15.346;2023-09-19T00:41:56;3.30;;;3.00;;
35897;SDS011;21997;47.118;15.346;2023-09-19T00:44:22;7.07;;;3.17;;
35897;SDS011;21997;47.118;15.346;2023-09-19T00:46:48;3.60;;;2.50;;
35897;SDS011;21997;47.118;15.346;2023-09-19T00:49:15;4.47;;;3.27;;
35897;SDS011;21997;47.118;15.346;2023-09-19T00:51:41;5.37;;;3.30;;
35897;SDS011;21997;47.118;15.346;2023-09-19T00:54:10;4.73;;;2.67;;
35897;SDS011;21997;47.118;15.346;2023-09-19T00:56:38;5.43;;;3.70;;
35897;SDS011;21997;47.118;15.346;2023-09-19T00:59:05;5.37;;;3.80;;
35897;SDS011;21997;47.118;15.346;2023-09-19T01:01:31;5.40;;;3.30;;
35897;SDS011;21997;47.118;15.346;2023-09-19T01:03:58;6.87;;;4.00;;
35897;SDS011;21997;47.118;15.346;2023-09-19T01:06:24;4.60;;;3.20;;
35897;SDS011;21997;47.118;15.346;2023-09-19T01:08:49;5.00;;;3.10;;
35897;SDS011;21997;47.118;15.346;2023-09-19T01:11:17;5.77;;;3.47;;
35897;SDS011;21997;47.118;15.346;2023-09-19T01:13:56;7.13;;;2.70;;
35897;SDS011;21997;47.118;15.346;2023-09-19T01:19:12;5.83;;;3.27;;
35897;SDS011;21997;47.118;15.346;2023-09-19T01:22:00;5.13;;;2.73;;
35897;SDS011;21997;47.118;15.346;2023-09-19T01:29:46;5.37;;;2.93;;
35897;SDS011;21997;47.118;15.346;2023-09-19T01:32:16;4.67;;;3.30;;
35897;SDS011;21997;47.118;15.346;2023-09-19T01:37:17;5.10;;;3.47;;
35897;SDS011;21997;47.118;15.346;2023-09-19T01:39:53;8.47;;;3.70;;
35897;SDS011;21997;47.118;15.346;2023-09-19T01:47:39;3.37;;;3.07;;
35897;SDS011;21997;47.118;15.346;2023-09-19T01:50:17;8.93;;;2.93;;
35897;SDS011;21997;47.118;15.346;2023-09-19T01:53:07;5.30;;;2.83;;
35897;SDS011;21997;47.118;15.346;2023-09-19T01:55:40;5.40;;;3.23;;
35897;SDS011;21997;47.118;15.346;2023-09-19T01:58:15;5.40;;;2.83;;
35897;SDS011;21997;47.118;15.346;2023-09-19T02:00:43;3.77;;;3.00;;
35897;SDS011;21997;47.118;15.346;2023-09-19T02:03:10;6.80;;;3.37;;
35897;SDS011;21997;47.118;15.346;2023-09-19T02:05:36;5.07;;;2.80;;
35897;SDS011;21997;47.118;15.346;2023-09-19T02:08:02;4.20;;;3.20;;
35897;SDS011;21997;47.118;15.346;2023-09-19T02:10:28;4.33;;;3.30;;
35897;SDS011;21997;47.118;15.346;2023-09-19T02:12:54;4.57;;;2.50;;
35897;SDS011;21997;47.118;15.346;2023-09-19T02:15:19;3.47;;;3.00;;
35897;SDS011;21997;47.118;15.346;2023-09-19T02:17:45;3.70;;;3.00;;
35897;SDS011;21997;47.118;15.346;2023-09-19T02:20:11;3.40;;;2.70;;
35897;SDS011;21997;47.118;15.346;2023-09-19T02:22:43;7.67;;;3.07;;
35897;SDS011;21997;47.118;15.346;2023-09-19T02:25:09;7.30;;;3.97;;
35897;SDS011;21997;47.118;15.346;2023-09-19T02:27:35;5.60;;;3.00;;
35897;SDS011;21997;47.118;15.346;2023-09-19T02:30:01;3.63;;;2.70;;
35897;SDS011;21997;47.118;15.346;2023-09-19T02:32:29;5.70;;;2.70;;
35897;SDS011;21997;47.118;15.346;2023-09-19T02:34:56;5.30;;;2.53;;
35897;SDS011;21997;47.118;15.346;2023-09-19T02:37:23;3.80;;;2.40;;
35897;SDS011;21997;47.118;15.346;2023-09-19T02:39:48;3.60;;;2.70;;
35897;SDS011;21997;47.118;15.346;2023-09-19T02:42:14;4.50;;;2.77;;
35897;SDS011;21997;47.118;15.346;2023-09-19T02:44:39;4.93;;;2.70;;
35897;SDS011;21997;47.118;15.346;2023-09-19T02:47:05;3.47;;;2.60;;
35897;SDS011;21997;47.118;15.346;2023-09-19T02:49:30;3.37;;;2.13;;
35897;SDS011;21997;47.118;15.346;2023-09-19T02:51:55;5.90;;;2.00;;
35897;SDS011;21997;47.118;15.346;2023-09-19T02:54:23;4.13;;;2.60;;
35897;SDS011;21997;47.118;15.346;2023-09-19T02:56:49;3.23;;;2.27;;
35897;SDS011;21997;47.118;15.346;2023-09-19T02:59:14;5.60;;;2.70;;
35897;SDS011;21997;47.118;15.346;2023-09-19T03:01:43;3.57;;;2.40;;
35897;SDS011;21997;47.118;15.346;2023-09-19T03:04:08;5.73;;;2.40;;
35897;SDS011;21997;47.118;15.346;2023-09-19T03:06:36;4.50;;;2.27;;
35897;SDS011;21997;47.118;15.346;2023-09-19T03:09:03;3.47;;;2.10;;
35897;SDS011;21997;47.118;15.346;2023-09-19T03:11:31;4.57;;;2.23;;
35897;SDS011;21997;47.118;15.346;2023-09-19T03:13:56;1.90;;;1.60;;
35897;SDS011;21997;47.118;15.346;2023-09-19T03:16:22;4.93;;;1.70;;
35897;SDS011;21997;47.118;15.346;2023-09-19T03:18:47;3.57;;;2.07;;
35897;SDS011;21997;47.118;15.346;2023-09-19T03:21:16;2.73;;;1.67;;
35897;SDS011;21997;47.118;15.346;2023-09-19T03:23:42;2.33;;;1.30;;
35897;SDS011;21997;47.118;15.346;2023-09-19T03:26:09;2.80;;;1.20;;
35897;SDS011;21997;47.118;15.346;2023-09-19T03:28:35;2.37;;;1.10;;
35897;SDS011;21997;47.118;15.346;2023-09-19T03:31:01;1.80;;;1.23;;
35897;SDS011;21997;47.118;15.346;2023-09-19T03:33:28;2.20;;;1.10;;
35897;SDS011;21997;47.118;15.346;2023-09-19T03:35:56;2.03;;;1.37;;
35897;SDS011;21997;47.118;15.346;2023-09-19T03:38:23;3.40;;;1.10;;
35897;SDS011;21997;47.118;15.346;2023-09-19T03:40:48;2.13;;;1.00;;
35897;SDS011;21997;47.118;15.346;2023-09-19T03:43:14;1.27;;;0.97;;
35897;SDS011;21997;47.118;15.346;2023-09-19T03:45:39;1.37;;;1.07;;
35897;SDS011;21997;47.118;15.346;2023-09-19T03:48:08;1.40;;;1.00;;
35897;SDS011;21997;47.118;15.346;2023-09-19T03:50:34;1.17;;;0.90;;
35897;SDS011;21997;47.118;15.346;2023-09-19T03:53:00;1.10;;;0.70;;
35897;SDS011;21997;47.118;15.346;2023-09-19T03:55:25;1.37;;;1.10;;
35897;SDS011;21997;47.118;15.346;2023-09-19T03:57:51;1.50;;;1.03;;
35897;SDS011;21997;47.118;15.346;2023-09-19T04:00:17;2.20;;;0.83;;
35897;SDS011;21997;47.118;15.346;2023-09-19T04:02:46;3.13;;;1.37;;
35897;SDS011;21997;47.118;15.346;2023-09-19T04:05:11;1.67;;;1.07;;
35897;SDS011;21997;47.118;15.346;2023-09-19T04:07:37;2.67;;;1.20;;
35897;SDS011;21997;47.118;15.346;2023-09-19T04:10:02;1.20;;;0.83;;
35897;SDS011;21997;47.118;15.346;2023-09-19T04:12:28;2.10;;;1.20;;
35897;SDS011;21997;47.118;15.346;2023-09-19T04:14:53;1.20;;;0.80;;
35897;SDS011;21997;47.118;15.346;2023-09-19T04:17:19;1.43;;;0.97;;
35897;SDS011;21997;47.118;15.346;2023-09-19T04:19:45;1.63;;;1.07;;
35897;SDS011;21997;47.118;15.346;2023-09-19T04:22:11;3.70;;;1.10;;
35897;SDS011;21997;47.118;15.346;2023-09-19T04:24:37;1.17;;;0.87;;
35897;SDS011;21997;47.118;15.346;2023-09-19T04:27:03;1.10;;;0.80;;
35897;SDS011;21997;47.118;15.346;2023-09-19T04:29:29;3.33;;;0.80;;
35897;SDS011;21997;47.118;15.346;2023-09-19T04:31:55;2.77;;;0.87;;
35897;SDS011;21997;47.118;15.346;2023-09-19T04:34:22;1.33;;;1.23;;
35897;SDS011;21997;47.118;15.346;2023-09-19T04:36:48;2.03;;;0.90;;
35897;SDS011;21997;47.118;15.346;2023-09-19T04:39:14;1.03;;;0.87;;
35897;SDS011;21997;47.118;15.346;2023-09-19T04:41:39;1.93;;;0.90;;
35897;SDS011;21997;47.118;15.346;2023-09-19T04:44:06;2.07;;;1.00;;
35897;SDS011;21997;47.118;15.346;2023-09-19T04:46:33;1.50;;;1.00;;
35897;SDS011;21997;47.118;15.346;2023-09-19T04:48:59;2.10;;;1.10;;
35897;SDS011;21997;47.118;15.346;2023-09-19T04:51:24;2.97;;;0.87;;
35897;SDS011;21997;47.118;15.346;2023-09-19T04:53:51;5.20;;;1.07;;
35897;SDS011;21997;47.118;15.346;2023-09-19T04:56:17;3.70;;;1.30;;
35897;SDS011;21997;47.118;15.346;2023-09-19T04:58:42;1.40;;;0.90;;
35897;SDS011;21997;47.118;15.346;2023-09-19T05:01:07;2.23;;;1.33;;
35897;SDS011;21997;47.118;15.346;2023-09-19T05:03:36;2.73;;;0.90;;
35897;SDS011;21997;47.118;15.346;2023-09-19T05:06:02;1.13;;;0.80;;
35897;SDS011;21997;47.118;15.346;2023-09-19T05:08:28;2.90;;;1.10;;
35897;SDS011;21997;47.118;15.346;2023-09-19T05:10:53;1.67;;;1.07;;
35897;SDS011;21997;47.118;15.346;2023-09-19T05:13:21;1.83;;;1.23;;
35897;SDS011;21997;47.118;15.346;2023-09-19T05:15:48;1.27;;;1.00;;
35897;SDS011;21997;47.118;15.346;2023-09-19T05:18:15;0.97;;;0.77;;
35897;SDS011;21997;47.118;15.346;2023-09-19T05:20:40;2.00;;;0.83;;
35897;SDS011;21997;47.118;15.346;2023-09-19T05:23:06;2.50;;;1.40;;
35897;SDS011;21997;47.118;15.346;2023-09-19T05:25:37;2.70;;;0.70;;
35897;SDS011;21997;47.118;15.346;2023-09-19T05:28:05;0.70;;;0.70;;
35897;SDS011;21997;47.118;15.346;2023-09-19T05:30:34;1.07;;;0.80;;
35897;SDS011;21997;47.118;15.346;2023-09-19T05:33:08;2.87;;;1.20;;
35897;SDS011;21997;47.118;15.346;2023-09-19T05:35:34;1.00;;;0.90;;
35897;SDS011;21997;47.118;15.346;2023-09-19T05:37:59;3.23;;;1.23;;
35897;SDS011;21997;47.118;15.346;2023-09-19T05:40:25;1.13;;;0.90;;
35897;SDS011;21997;47.118;15.346;2023-09-19T05:42:51;2.90;;;0.87;;
35897;SDS011;21997;47.118;15.346;2023-09-19T05:45:16;1.23;;;1.03;;
35897;SDS011;21997;47.118;15.346;2023-09-19T05:47:47;2.10;;;0.90;;
35897;SDS011;21997;47.118;15.346;2023-09-19T05:50:15;1.30;;;1.20;;
35897;SDS011;21997;47.118;15.346;2023-09-19T05:52:41;1.40;;;1.10;;
35897;SDS011;21997;47.118;15.346;2023-09-19T05:55:09;1.10;;;0.80;;
35897;SDS011;21997;47.118;15.346;2023-09-19T05:57:35;4.13;;;1.10;;
35897;SDS011;21997;47.118;15.346;2023-09-19T06:00:04;1.73;;;0.97;;
35897;SDS011;21997;47.118;15.346;2023-09-19T06:02:38;2.50;;;1.00;;
35897;SDS011;21997;47.118;15.346;2023-09-19T06:05:07;2.33;;;1.00;;
35897;SDS011;21997;47.118;15.346;2023-09-19T06:07:36;2.17;;;0.90;;
35897;SDS011;21997;47.118;15.346;2023-09-19T06:10:05;1.73;;;1.40;;
35897;SDS011;21997;47.118;15.346;2023-09-19T06:12:32;1.10;;;1.00;;
35897;SDS011;21997;47.118;15.346;2023-09-19T06:14:58;2.33;;;1.17;;
35897;SDS011;21997;47.118;15.346;2023-09-19T06:17:24;2.53;;;1.07;;
35897;SDS011;21997;47.118;15.346;2023-09-19T06:19:52;2.90;;;1.30;;
35897;SDS011;21997;47.118;15.346;2023-09-19T06:22:17;2.30;;;1.27;;
35897;SDS011;21997;47.118;15.346;2023-09-19T06:24:45;3.03;;;1.10;;
35897;SDS011;21997;47.118;15.346;2023-09-19T06:27:12;1.13;;;0.97;;
35897;SDS011;21997;47.118;15.346;2023-09-19T06:29:38;2.80;;;1.00;;
35897;SDS011;21997;47.118;15.346;2023-09-19T06:32:10;2.10;;;1.10;;
35897;SDS011;21997;47.118;15.346;2023-09-19T06:34:36;1.20;;;1.00;;
35897;SDS011;21997;47.118;15.346;2023-09-19T06:37:03;3.53;;;1.73;;
35897;SDS011;21997;47.118;15.346;2023-09-19T06:39:29;3.10;;;1.90;;
35897;SDS011;21997;47.118;15.346;2023-09-19T06:41:56;9.57;;;6.73;;
35897;SDS011;21997;47.118;15.346;2023-09-19T06:44:21;6.77;;;5.43;;
35897;SDS011;21997;47.118;15.346;2023-09-19T06:46:50;4.47;;;2.27;;
35897;SDS011;21997;47.118;15.346;2023-09-19T06:49:16;4.20;;;1.90;;
35897;SDS011;21997;47.118;15.346;2023-09-19T06:51:42;1.50;;;1.40;;
35897;SDS011;21997;47.118;15.346;2023-09-19T06:54:08;3.00;;;1.40;;
35897;SDS011;21997;47.118;15.346;2023-09-19T06:56:34;2.53;;;1.70;;
35897;SDS011;21997;47.118;15.346;2023-09-19T06:58:59;5.00;;;1.30;;
35897;SDS011;21997;47.118;15.346;2023-09-19T07:01:25;2.70;;;1.57;;
35897;SDS011;21997;47.118;15.346;2023-09-19T07:03:51;3.03;;;1.57;;
35897;SDS011;21997;47.118;15.346;2023-09-19T07:06:18;1.27;;;1.07;;
35897;SDS011;21997;47.118;15.346;2023-09-19T07:08:43;1.73;;;1.10;;
35897;SDS011;21997;47.118;15.346;2023-09-19T07:11:10;1.33;;;1.13;;
35897;SDS011;21997;47.118;15.346;2023-09-19T07:13:37;3.70;;;1.20;;
35897;SDS011;21997;47.118;15.346;2023-09-19T07:16:03;4.63;;;1.47;;
35897;SDS011;21997;47.118;15.346;2023-09-19T07:18:29;9.57;;;2.33;;
35897;SDS011;21997;47.118;15.346;2023-09-19T07:20:56;1.57;;;1.40;;
35897;SDS011;21997;47.118;15.346;2023-09-19T07:23:26;1.40;;;1.27;;
35897;SDS011;21997;47.118;15.346;2023-09-19T07:25:51;3.60;;;1.33;;
35897;SDS011;21997;47.118;15.346;2023-09-19T07:28:17;2.40;;;1.40;;
35897;SDS011;21997;47.118;15.346;2023-09-19T07:30:43;1.23;;;1.13;;
35897;SDS011;21997;47.118;15.346;2023-09-19T07:33:09;1.57;;;1.40;;
35897;SDS011;21997;47.118;15.346;2023-09-19T07:35:37;1.43;;;1.23;;
35897;SDS011;21997;47.118;15.346;2023-09-19T07:38:06;1.33;;;1.23;;
35897;SDS011;21997;47.118;15.346;2023-09-19T07:40:32;2.77;;;1.47;;
35897;SDS011;21997;47.118;15.346;2023-09-19T07:42:58;2.97;;;1.80;;
35897;SDS011;21997;47.118;15.346;2023-09-19T07:45:27;1.93;;;1.73;;
35897;SDS011;21997;47.118;15.346;2023-09-19T07:47:53;1.90;;;1.33;;
35897;SDS011;21997;47.118;15.346;2023-09-19T07:50:19;2.30;;;1.50;;
35897;SDS011;21997;47.118;15.346;2023-09-19T07:52:45;1.73;;;1.40;;
35897;SDS011;21997;47.118;15.346;2023-09-19T07:55:10;2.57;;;1.60;;
35897;SDS011;21997;47.118;15.346;2023-09-19T07:57:40;3.80;;;1.80;;
35897;SDS011;21997;47.118;15.346;2023-09-19T08:00:07;3.07;;;1.70;;
35897;SDS011;21997;47.118;15.346;2023-09-19T08:02:38;2.53;;;1.30;;
35897;SDS011;21997;47.118;15.346;2023-09-19T08:05:10;2.27;;;1.37;;
35897;SDS011;21997;47.118;15.346;2023-09-19T08:07:37;1.07;;;1.00;;
35897;SDS011;21997;47.118;15.346;2023-09-19T08:10:04;2.33;;;1.40;;
35897;SDS011;21997;47.118;15.346;2023-09-19T08:12:35;2.27;;;1.73;;
35897;SDS011;21997;47.118;15.346;2023-09-19T08:15:01;1.27;;;1.00;;
35897;SDS011;21997;47.118;15.346;2023-09-19T08:17:28;1.60;;;1.20;;
35897;SDS011;21997;47.118;15.346;2023-09-19T08:19:53;1.83;;;1.00;;
35897;SDS011;21997;47.118;15.346;2023-09-19T08:22:19;1.93;;;1.30;;
35897;SDS011;21997;47.118;15.346;2023-09-19T08:24:45;1.13;;;1.00;;
35897;SDS011;21997;47.118;15.346;2023-09-19T08:27:11;1.23;;;1.07;;
35897;SDS011;21997;47.118;15.346;2023-09-19T08:29:37;3.07;;;1.70;;
35897;SDS011;21997;47.118;15.346;2023-09-19T08:32:03;3.43;;;1.03;;
35897;SDS011;21997;47.118;15.346;2023-09-19T08:34:29;1.33;;;1.20;;
35897;SDS011;21997;47.118;15.346;2023-09-19T08:36:57;1.33;;;1.10;;
35897;SDS011;21997;47.118;15.346;2023-09-19T08:39:23;1.97;;;1.30;;
35897;SDS011;21997;47.118;15.346;2023-09-19T08:41:49;3.30;;;1.37;;
35897;SDS011;21997;47.118;15.346;2023-09-19T08:44:15;1.23;;;1.13;;
35897;SDS011;21997;47.118;15.346;2023-09-19T08:46:41;2.20;;;1.53;;
35897;SDS011;21997;47.118;15.346;2023-09-19T08:49:14;3.47;;;1.73;;
35897;SDS011;21997;47.118;15.346;2023-09-19T08:51:47;2.10;;;1.50;;
35897;SDS011;21997;47.118;15.346;2023-09-19T08:54:24;2.40;;;1.70;;
35897;SDS011;21997;47.118;15.346;2023-09-19T08:56:51;1.80;;;1.50;;
35897;SDS011;21997;47.118;15.346;2023-09-19T08:59:20;2.63;;;1.60;;
35897;SDS011;21997;47.118;15.346;2023-09-19T09:01:49;2.17;;;1.40;;
35897;SDS011;21997;47.118;15.346;2023-09-19T09:04:18;1.27;;;1.00;;
35897;SDS011;21997;47.118;15.346;2023-09-19T09:06:44;2.90;;;1.33;;
35897;SDS011;21997;47.118;15.346;2023-09-19T09:09:10;1.53;;;1.20;;
35897;SDS011;21997;47.118;15.346;2023-09-19T09:11:35;2.43;;;1.33;;
35897;SDS011;21997;47.118;15.346;2023-09-19T09:14:05;1.70;;;1.37;;
35897;SDS011;21997;47.118;15.346;2023-09-19T09:16:32;1.10;;;1.00;;
35897;SDS011;21997;47.118;15.346;2023-09-19T09:18:57;3.27;;;1.40;;
35897;SDS011;21997;47.118;15.346;2023-09-19T09:21:26;2.10;;;1.03;;
35897;SDS011;21997;47.118;15.346;2023-09-19T09:23:52;1.37;;;0.70;;
35897;SDS011;21997;47.118;15.346;2023-09-19T09:27:04;2.13;;;0.87;;
35897;SDS011;21997;47.118;15.346;2023-09-19T09:29:03;1.87;;;1.10;;
35897;SDS011;21997;47.118;15.346;2023-09-19T09:31:29;1.57;;;1.10;;
35897;SDS011;21997;47.118;15.346;2023-09-19T09:33:55;2.60;;;1.20;;
35897;SDS011;21997;47.118;15.346;2023-09-19T09:36:39;0.90;;;0.70;;
35897;SDS011;21997;47.118;15.346;2023-09-19T09:39:06;2.97;;;1.10;;
35897;SDS011;21997;47.118;15.346;2023-09-19T09:41:49;1.90;;;0.90;;
35897;SDS011;21997;47.118;15.346;2023-09-19T09:44:16;4.23;;;1.13;;
35897;SDS011;21997;47.118;15.346;2023-09-19T09:46:43;4.23;;;1.17;;
35897;SDS011;21997;47.118;15.346;2023-09-19T09:49:23;2.07;;;1.00;;
35897;SDS011;21997;47.118;15.346;2023-09-19T09:51:59;4.07;;;0.90;;
35897;SDS011;21997;47.118;15.346;2023-09-19T09:54:32;2.23;;;1.00;;
35897;SDS011;21997;47.118;15.346;2023-09-19T09:57:02;1.70;;;1.00;;
35897;SDS011;21997;47.118;15.346;2023-09-19T09:59:51;0.93;;;0.50;;
35897;SDS011;21997;47.118;15.346;2023-09-19T10:05:03;1.67;;;0.90;;
35897;SDS011;21997;47.118;15.346;2023-09-19T10:07:45;2.20;;;0.80;;
35897;SDS011;21997;47.118;15.346;2023-09-19T10:13:19;0.80;;;0.80;;
35897;SDS011;21997;47.118;15.346;2023-09-19T10:15:49;2.57;;;1.00;;
35897;SDS011;21997;47.118;15.346;2023-09-19T10:18:24;0.77;;;0.60;;
35897;SDS011;21997;47.118;15.346;2023-09-19T10:20:50;1.57;;;1.00;;
35897;SDS011;21997;47.118;15.346;2023-09-19T10:23:17;1.37;;;1.03;;
35897;SDS011;21997;47.118;15.346;2023-09-19T10:25:47;1.77;;;0.80;;
35897;SDS011;21997;47.118;15.346;2023-09-19T10:28:13;1.57;;;0.83;;
35897;SDS011;21997;47.118;15.346;2023-09-19T10:30:41;2.13;;;1.10;;
35897;SDS011;21997;47.118;15.346;2023-09-19T10:33:16;1.57;;;0.90;;
35897;SDS011;21997;47.118;15.346;2023-09-19T10:35:46;1.37;;;1.13;;
35897;SDS011;21997;47.118;15.346;2023-09-19T10:38:14;1.10;;;0.70;;
35897;SDS011;21997;47.118;15.346;2023-09-19T10:40:41;3.03;;;1.00;;
35897;SDS011;21997;47.118;15.346;2023-09-19T10:43:17;0.73;;;0.63;;
35897;SDS011;21997;47.118;15.346;2023-09-19T10:45:47;1.27;;;0.80;;
35897;SDS011;21997;47.118;15.346;2023-09-19T10:48:14;0.93;;;0.90;;
35897;SDS011;21997;47.118;15.346;2023-09-19T10:53:24;1.00;;;0.87;;
35897;SDS011;21997;47.118;15.346;2023-09-19T10:55:55;1.30;;;0.90;;
35897;SDS011;21997;47.118;15.346;2023-09-19T10:58:25;1.33;;;1.10;;
35897;SDS011;21997;47.118;15.346;2023-09-19T11:00:54;2.30;;;0.90;;
35897;SDS011;21997;47.118;15.346;2023-09-19T11:03:30;1.87;;;1.10;;
35897;SDS011;21997;47.118;15.346;2023-09-19T11:06:12;1.03;;;0.53;;
35897;SDS011;21997;47.118;15.346;2023-09-19T11:08:57;1.17;;;1.00;;
35897;SDS011;21997;47.118;15.346;2023-09-19T11:30:45;1.92;;;1.17;;
35897;SDS011;21997;47.118;15.346;2023-09-19T11:46:31;1.30;;;0.87;;
35897;SDS011;21997;47.118;15.346;2023-09-19T11:49:07;1.40;;;0.90;;
35897;SDS011;21997;47.118;15.346;2023-09-19T11:51:40;0.97;;;0.87;;
35897;SDS011;21997;47.118;15.346;2023-09-19T11:54:10;1.53;;;0.93;;
35897;SDS011;21997;47.118;15.346;2023-09-19T11:56:53;2.90;;;1.50;;
35897;SDS011;21997;47.118;15.346;2023-09-19T11:59:23;1.00;;;0.90;;
35897;SDS011;21997;47.118;15.346;2023-09-19T12:01:55;0.90;;;0.80;;
35897;SDS011;21997;47.118;15.346;2023-09-19T12:04:58;0.85;;;0.70;;
35897;SDS011;21997;47.118;15.346;2023-09-19T12:07:18;1.63;;;1.00;;
35897;SDS011;21997;47.118;15.346;2023-09-19T12:09:46;1.33;;;0.67;;
35897;SDS011;21997;47.118;15.346;2023-09-19T12:12:19;1.30;;;0.97;;
35897;SDS011;21997;47.118;15.346;2023-09-19T12:14:52;4.73;;;0.93;;
35897;SDS011;21997;47.118;15.346;2023-09-19T12:17:18;1.70;;;0.97;;
35897;SDS011;21997;47.118;15.346;2023-09-19T12:19:51;1.27;;;0.80;;
35897;SDS011;21997;47.118;15.346;2023-09-19T12:22:17;2.00;;;1.00;;
35897;SDS011;21997;47.118;15.346;2023-09-19T12:24:44;1.00;;;0.80;;
35897;SDS011;21997;47.118;15.346;2023-09-19T12:27:10;1.23;;;0.80;;
35897;SDS011;21997;47.118;15.346;2023-09-19T12:29:43;1.37;;;0.90;;
35897;SDS011;21997;47.118;15.346;2023-09-19T12:32:16;1.48;;;0.75;;
35897;SDS011;21997;47.118;15.346;2023-09-19T12:34:52;0.85;;;0.70;;
35897;SDS011;21997;47.118;15.346;2023-09-19T12:37:19;1.85;;;0.93;;
35897;SDS011;21997;47.118;15.346;2023-09-19T12:39:52;1.50;;;0.65;;
35897;SDS011;21997;47.118;15.346;2023-09-19T12:42:23;1.35;;;1.00;;
35897;SDS011;21997;47.118;15.346;2023-09-19T12:44:50;2.17;;;0.80;;
35897;SDS011;21997;47.118;15.346;2023-09-19T12:47:20;1.27;;;1.15;;
35897;SDS011;21997;47.118;15.346;2023-09-19T12:52:51;1.25;;;0.90;;
35897;SDS011;21997;47.118;15.346;2023-09-19T12:55:21;2.67;;;1.20;;
35897;SDS011;21997;47.118;15.346;2023-09-19T12:58:22;1.67;;;0.70;;
35897;SDS011;21997;47.118;15.346;2023-09-19T13:00:42;4.68;;;1.35;;
35897;SDS011;21997;47.118;15.346;2023-09-19T13:03:24;3.22;;;0.98;;
35897;SDS011;21997;47.118;15.346;2023-09-19T13:08:24;1.70;;;1.10;;
35897;SDS011;21997;47.118;15.346;2023-09-19T13:11:13;1.40;;;0.90;;
35897;SDS011;21997;47.118;15.346;2023-09-19T13:16:19;2.03;;;0.80;;
35897;SDS011;21997;47.118;15.346;2023-09-19T13:18:48;2.50;;;1.20;;
35897;SDS011;21997;47.118;15.346;2023-09-19T13:21:26;1.60;;;0.82;;
35897;SDS011;21997;47.118;15.346;2023-09-19T13:24:17;1.63;;;1.15;;
35897;SDS011;21997;47.118;15.346;2023-09-19T13:26:47;2.20;;;0.93;;
35897;SDS011;21997;47.118;15.346;2023-09-19T13:29:13;0.95;;;0.75;;
35897;SDS011;21997;47.118;15.346;2023-09-19T13:31:44;1.17;;;0.77;;
35897;SDS011;21997;47.118;15.346;2023-09-19T13:34:10;1.48;;;0.80;;
35897;SDS011;21997;47.118;15.346;2023-09-19T13:36:36;1.90;;;0.95;;
35897;SDS011;21997;47.118;15.346;2023-09-19T13:39:02;1.67;;;0.70;;
35897;SDS011;21997;47.118;15.346;2023-09-19T13:41:30;1.55;;;1.10;;
35897;SDS011;21997;47.118;15.346;2023-09-19T13:43:57;1.75;;;0.52;;
35897;SDS011;21997;47.118;15.346;2023-09-19T13:46:23;0.77;;;0.77;;
35897;SDS011;21997;47.118;15.346;2023-09-19T13:48:51;0.70;;;0.60;;
35897;SDS011;21997;47.118;15.346;2023-09-19T13:51:20;2.45;;;0.70;;
35897;SDS011;21997;47.118;15.346;2023-09-19T13:53:48;2.55;;;0.98;;
35897;SDS011;21997;47.118;15.346;2023-09-19T13:56:13;1.58;;;1.00;;
35897;SDS011;21997;47.118;15.346;2023-09-19T13:58:39;1.20;;;0.90;;
35897;SDS011;21997;47.118;15.346;2023-09-19T14:01:06;4.87;;;0.73;;
35897;SDS011;21997;47.118;15.346;2023-09-19T14:03:37;0.98;;;0.60;;
35897;SDS011;21997;47.118;15.346;2023-09-19T14:06:02;1.27;;;0.80;;
35897;SDS011;21997;47.118;15.346;2023-09-19T14:08:28;2.57;;;0.97;;
35897;SDS011;21997;47.118;15.346;2023-09-19T14:10:54;4.10;;;1.20;;
35897;SDS011;21997;47.118;15.346;2023-09-19T14:13:19;2.90;;;0.90;;
35897;SDS011;21997;47.118;15.346;2023-09-19T14:15:45;0.67;;;0.67;;
35897;SDS011;21997;47.118;15.346;2023-09-19T14:18:11;0.73;;;0.67;;
35897;SDS011;21997;47.118;15.346;2023-09-19T14:20:37;0.90;;;0.60;;
35897;SDS011;21997;47.118;15.346;2023-09-19T14:23:08;1.30;;;0.57;;
35897;SDS011;21997;47.118;15.346;2023-09-19T14:25:34;1.20;;;0.87;;
35897;SDS011;21997;47.118;15.346;2023-09-19T14:28:00;2.60;;;0.90;;
35897;SDS011;21997;47.118;15.346;2023-09-19T14:30:25;1.67;;;0.90;;
35897;SDS011;21997;47.118;15.346;2023-09-19T14:32:51;2.13;;;0.90;;
35897;SDS011;21997;47.118;15.346;2023-09-19T14:35:17;1.30;;;0.83;;
35897;SDS011;21997;47.118;15.346;2023-09-19T14:37:42;1.60;;;0.80;;
35897;SDS011;21997;47.118;15.346;2023-09-19T14:40:08;1.07;;;0.80;;
35897;SDS011;21997;47.118;15.346;2023-09-19T14:42:39;1.17;;;0.80;;
35897;SDS011;21997;47.118;15.346;2023-09-19T14:45:05;1.83;;;1.10;;
35897;SDS011;21997;47.118;15.346;2023-09-19T14:47:31;1.47;;;0.80;;
35897;SDS011;21997;47.118;15.346;2023-09-19T14:49:59;1.40;;;0.80;;
35897;SDS011;21997;47.118;15.346;2023-09-19T14:52:31;1.97;;;0.60;;
35897;SDS011;21997;47.118;15.346;2023-09-19T14:54:57;1.37;;;0.90;;
35897;SDS011;21997;47.118;15.346;2023-09-19T14:57:22;1.67;;;0.97;;
35897;SDS011;21997;47.118;15.346;2023-09-19T14:59:49;1.60;;;1.27;;
35897;SDS011;21997;47.118;15.346;2023-09-19T15:02:16;1.00;;;0.80;;
35897;SDS011;21997;47.118;15.346;2023-09-19T15:04:42;1.53;;;0.90;;
35897;SDS011;21997;47.118;15.346;2023-09-19T15:07:10;1.43;;;1.00;;
35897;SDS011;21997;47.118;15.346;2023-09-19T15:09:35;1.20;;;0.80;;
35897;SDS011;21997;47.118;15.346;2023-09-19T15:12:01;3.53;;;1.27;;
35897;SDS011;21997;47.118;15.346;2023-09-19T15:14:27;2.20;;;1.00;;
35897;SDS011;21997;47.118;15.346;2023-09-19T15:16:54;2.00;;;1.37;;
35897;SDS011;21997;47.118;15.346;2023-09-19T15:19:21;1.10;;;0.83;;
35897;SDS011;21997;47.118;15.346;2023-09-19T15:21:48;1.20;;;1.00;;
35897;SDS011;21997;47.118;15.346;2023-09-19T15:24:14;1.77;;;1.10;;
35897;SDS011;21997;47.118;15.346;2023-09-19T15:26:42;1.73;;;0.73;;
35897;SDS011;21997;47.118;15.346;2023-09-19T15:29:10;1.30;;;0.80;;
35897;SDS011;21997;47.118;15.346;2023-09-19T15:31:36;1.30;;;0.70;;
35897;SDS011;21997;47.118;15.346;2023-09-19T15:34:03;1.80;;;1.23;;
35897;SDS011;21997;47.118;15.346;2023-09-19T15:36:32;1.23;;;1.13;;
35897;SDS011;21997;47.118;15.346;2023-09-19T15:38:59;0.77;;;0.77;;
35897;SDS011;21997;47.118;15.346;2023-09-19T15:41:27;1.77;;;1.00;;
35897;SDS011;21997;47.118;15.346;2023-09-19T15:43:55;1.87;;;1.00;;